NCAR-RAP Real-Time Weather Data

Output produced by METARs form (14 October 2019  22:52 UTC)
found at http://weather.rap.ucar.edu/surface/
 
KGEG 142153Z 25005KT 8SM SCT045 SCT250 13/01 A3008 RMK AO2 SLP190 T01280011